createdAt,value
2019-04-26T00:01:42.705Z,99059.34
2019-04-26T00:04:10.320Z,99058.40
2019-04-26T00:06:37.300Z,99060.14
2019-04-26T00:09:04.248Z,99055.47
2019-04-26T00:11:33.142Z,99051.22
2019-04-26T00:14:00.120Z,99049.47
2019-04-26T00:16:27.406Z,99049.92
2019-04-26T00:18:54.277Z,99050.86
2019-04-26T00:21:21.287Z,99052.70
2019-04-26T00:23:50.608Z,99052.34
2019-04-26T00:26:17.772Z,99048.67
2019-04-26T00:28:46.014Z,99053.63
2019-04-26T00:31:12.945Z,99047.00
2019-04-26T00:33:40.235Z,99050.52
2019-04-26T00:36:07.488Z,99047.55
2019-04-26T00:38:34.833Z,99042.78
2019-04-26T00:41:01.779Z,99041.84
2019-04-26T00:43:29.034Z,99044.62
2019-04-26T00:45:55.916Z,99048.97
2019-04-26T00:48:23.974Z,99039.66
2019-04-26T00:50:50.905Z,99043.17
2019-04-26T00:53:18.148Z,99038.11
2019-04-26T00:55:45.014Z,99033.50
2019-04-26T00:58:12.329Z,99033.25
2019-04-26T01:00:39.231Z,99041.17
2019-04-26T01:03:07.566Z,99035.44
2019-04-26T01:05:34.814Z,99033.21
2019-04-26T01:08:01.683Z,99033.63
2019-04-26T01:10:28.911Z,99027.06
2019-04-26T01:12:56.065Z,99023.29
2019-04-26T01:15:24.612Z,99022.36
2019-04-26T01:17:51.708Z,99012.34
2019-04-26T01:20:19.007Z,99013.72
2019-04-26T01:22:45.892Z,99005.55
2019-04-26T01:25:12.784Z,99001.03
2019-04-26T01:27:39.730Z,99001.39
2019-04-26T01:30:06.946Z,98998.27
2019-04-26T01:32:33.817Z,98998.45
2019-04-26T01:35:00.765Z,99000.29
2019-04-26T01:37:28.681Z,98993.66
2019-04-26T01:39:55.946Z,98989.80
2019-04-26T01:42:22.836Z,98991.38
2019-04-26T01:44:49.698Z,98996.78
2019-04-26T01:47:17.897Z,98993.20
2019-04-26T01:49:44.788Z,98993.11
2019-04-26T01:52:11.811Z,98996.42
2019-04-26T01:54:39.051Z,98991.44
2019-04-26T01:57:06.212Z,98992.82
2019-04-26T01:59:33.160Z,98980.97
2019-04-26T02:02:00.085Z,98979.52
2019-04-26T02:04:27.830Z,98977.59
2019-04-26T02:06:55.119Z,98978.42
2019-04-26T02:09:23.007Z,98980.00
2019-04-26T02:11:50.337Z,98980.64
2019-04-26T02:14:17.524Z,98973.10
2019-04-26T02:16:44.766Z,98974.48
2019-04-26T02:19:11.657Z,98973.65
2019-04-26T02:21:38.671Z,98976.03
2019-04-26T02:24:05.616Z,98975.29
2019-04-26T02:26:32.692Z,98983.59
2019-04-26T02:29:00.008Z,98985.98
2019-04-26T02:31:28.625Z,98982.47
2019-04-26T02:33:55.481Z,98971.81
2019-04-26T02:36:22.420Z,98967.56
2019-04-26T02:38:49.395Z,98971.27
2019-04-26T02:41:16.248Z,98970.16
2019-04-26T02:43:43.129Z,98961.44
2019-04-26T02:46:10.368Z,98966.48
2019-04-26T02:48:37.977Z,98960.59
2019-04-26T02:51:06.033Z,98965.73
2019-04-26T02:53:33.748Z,98969.60
2019-04-26T02:56:01.475Z,98972.17
2019-04-26T02:58:30.070Z,98969.25
2019-04-26T03:00:57.242Z,98968.16
2019-04-26T03:03:24.120Z,98967.86
2019-04-26T03:05:51.100Z,98968.80
2019-04-26T03:08:18.034Z,98965.41
2019-04-26T03:10:45.071Z,98967.00
2019-04-26T03:13:11.997Z,98968.95
2019-04-26T03:15:38.999Z,98970.30
2019-04-26T03:18:06.274Z,98964.98
2019-04-26T03:20:34.510Z,98959.38
2019-04-26T03:23:02.300Z,98960.19
2019-04-26T03:25:29.174Z,98966.45
2019-04-26T03:27:57.362Z,98965.07
2019-04-26T03:30:24.777Z,98962.50
2019-04-26T03:32:54.165Z,98960.74
2019-04-26T03:35:20.301Z,98956.14
2019-04-26T03:37:47.558Z,98962.45
2019-04-26T03:40:14.457Z,98958.84
2019-04-26T03:42:42.867Z,98954.92
2019-04-26T03:45:10.021Z,98953.98
2019-04-26T03:47:38.714Z,98949.73
2019-04-26T03:50:06.497Z,98942.91
2019-04-26T03:52:35.342Z,98948.67
2019-04-26T03:55:02.018Z,98949.78
2019-04-26T03:57:29.193Z,98951.77
2019-04-26T03:59:56.206Z,98945.39
2019-04-26T04:02:23.380Z,98947.58
2019-04-26T04:04:50.627Z,98947.26
2019-04-26T04:07:17.506Z,98945.67
2019-04-26T04:09:44.820Z,98952.67
2019-04-26T04:12:12.483Z,98949.00
2019-04-26T04:14:40.489Z,98946.06
2019-04-26T04:17:08.479Z,98950.03
2019-04-26T04:19:35.424Z,98943.92
2019-04-26T04:22:02.363Z,98951.53
2019-04-26T04:24:29.581Z,98948.88
2019-04-26T04:26:56.523Z,98947.38
2019-04-26T04:29:39.344Z,98951.63
2019-04-26T04:31:53.374Z,98946.67
2019-04-26T04:34:20.331Z,98946.48
2019-04-26T04:36:50.703Z,98956.00
2019-04-26T04:39:15.786Z,98949.58
2019-04-26T04:41:42.992Z,98961.30
2019-04-26T04:44:09.954Z,98959.18
2019-04-26T04:46:37.106Z,98956.45
2019-04-26T04:49:04.057Z,98956.02
2019-04-26T04:51:30.932Z,98965.23
2019-04-26T04:53:57.864Z,98969.11
2019-04-26T04:56:25.117Z,98965.92
2019-04-26T04:58:52.495Z,98972.00
2019-04-26T05:01:19.900Z,98973.03
2019-04-26T05:03:46.972Z,98960.14
2019-04-26T05:06:14.290Z,98966.58
2019-04-26T05:08:41.157Z,98970.22
2019-04-26T05:11:08.016Z,98968.52
2019-04-26T05:13:34.929Z,98970.50
2019-04-26T05:16:01.918Z,98971.76
2019-04-26T05:18:29.137Z,98974.26
2019-04-26T05:20:55.993Z,98975.92
2019-04-26T05:23:22.858Z,98973.08
2019-04-26T05:25:49.816Z,98976.88
2019-04-26T05:28:16.757Z,98978.25
2019-04-26T05:30:43.638Z,98978.03
2019-04-26T05:33:10.912Z,98976.17
2019-04-26T05:35:37.774Z,98977.45
2019-04-26T05:38:04.657Z,98975.16
2019-04-26T05:40:31.953Z,98983.14
2019-04-26T05:42:58.856Z,98980.17
2019-04-26T05:45:26.042Z,98978.47
2019-04-26T05:48:06.199Z,98983.56
2019-04-26T05:50:21.794Z,98980.01
2019-04-26T05:52:50.108Z,98982.75
2019-04-26T05:55:17.500Z,98978.46
2019-04-26T05:57:44.512Z,98989.21
2019-04-26T06:00:11.716Z,98981.96
2019-04-26T06:02:38.660Z,98986.64
2019-04-26T06:05:06.945Z,98982.14
2019-04-26T06:07:33.822Z,98998.47
2019-04-26T06:10:01.145Z,98997.10
2019-04-26T06:12:28.085Z,99018.59
2019-04-26T06:14:55.042Z,99021.91
2019-04-26T06:17:22.296Z,99023.02
2019-04-26T06:19:49.237Z,99021.85
2019-04-26T06:22:16.484Z,99024.20
2019-04-26T06:24:43.665Z,99026.41
2019-04-26T06:27:14.082Z,99034.02
2019-04-26T06:29:39.154Z,99037.96
2019-04-26T06:32:06.049Z,99051.93
2019-04-26T06:34:32.987Z,99052.45
2019-04-26T06:36:59.911Z,99054.98
2019-04-26T06:39:26.832Z,99054.08
2019-04-26T06:41:54.760Z,99060.09
2019-04-26T06:44:22.484Z,99056.14
2019-04-26T06:46:49.438Z,99059.09
2019-04-26T06:49:16.770Z,99061.77
2019-04-26T06:51:44.041Z,99061.30
2019-04-26T06:54:11.319Z,99058.89
2019-04-26T06:56:38.536Z,99065.55
2019-04-26T06:59:05.868Z,99060.88
2019-04-26T07:01:33.156Z,99062.07
2019-04-26T07:04:00.100Z,99059.44
2019-04-26T07:06:34.855Z,99059.58
2019-04-26T07:08:57.766Z,99062.57
2019-04-26T07:11:27.218Z,99060.46
2019-04-26T07:13:54.130Z,99055.84
2019-04-26T07:16:23.248Z,99064.98
2019-04-26T07:18:50.590Z,99070.21
2019-04-26T07:21:17.561Z,99059.84
2019-04-26T07:23:45.518Z,99064.79
2019-04-26T07:26:13.658Z,99058.77
2019-04-26T07:28:40.665Z,99064.83
2019-04-26T07:31:08.305Z,99066.64
2019-04-26T07:33:35.539Z,99064.45
2019-04-26T07:36:03.827Z,99068.59
2019-04-26T07:38:31.258Z,99071.11
2019-04-26T07:40:58.208Z,99068.05
2019-04-26T07:43:25.393Z,99068.84
2019-04-26T07:45:52.317Z,99066.64
2019-04-26T07:48:19.659Z,99059.66
2019-04-26T07:50:46.689Z,99063.90
2019-04-26T07:53:13.668Z,99063.16
2019-04-26T07:55:40.567Z,99066.93
2019-04-26T07:58:07.465Z,99064.83
2019-04-26T08:00:44.342Z,99066.31
2019-04-26T08:03:04.153Z,99074.00
2019-04-26T08:05:31.946Z,99074.91
2019-04-26T08:07:59.221Z,99080.89
2019-04-26T08:10:26.197Z,99075.64
2019-04-26T08:12:53.134Z,99081.19
2019-04-26T08:15:20.364Z,99086.68
2019-04-26T08:17:47.703Z,99090.80
2019-04-26T08:20:15.490Z,99094.02
2019-04-26T08:22:42.531Z,99101.31
2019-04-26T08:25:10.363Z,99100.34
2019-04-26T08:27:37.746Z,99098.05
2019-04-26T08:30:10.496Z,99103.19
2019-04-26T08:32:33.882Z,99102.20
2019-04-26T08:35:02.298Z,99097.81
2019-04-26T08:37:32.253Z,99086.91
2019-04-26T08:39:58.521Z,99095.85
2019-04-26T08:42:25.856Z,99091.78
2019-04-26T08:44:53.006Z,99090.36
2019-04-26T08:47:25.985Z,99098.21
2019-04-26T08:49:49.049Z,99094.98
2019-04-26T08:52:15.943Z,99094.03
2019-04-26T08:54:42.896Z,99087.20
2019-04-26T08:57:09.895Z,99085.38
2019-04-26T08:59:36.825Z,99085.31
2019-04-26T09:02:04.102Z,99085.37
2019-04-26T09:04:30.983Z,99090.83
2019-04-26T09:06:58.194Z,99087.81
2019-04-26T09:09:25.081Z,99082.24
2019-04-26T09:11:59.585Z,99080.94
2019-04-26T09:14:20.661Z,99082.83
2019-04-26T09:16:50.395Z,99085.23
2019-04-26T09:19:16.184Z,99084.40
2019-04-26T09:21:43.153Z,99082.64
2019-04-26T09:24:10.031Z,99086.11
2019-04-26T09:26:36.979Z,99086.94
2019-04-26T09:29:04.176Z,99084.81
2019-04-26T09:31:31.067Z,99089.41
2019-04-26T09:33:58.593Z,99094.76
2019-04-26T09:36:25.450Z,99093.70
2019-04-26T09:38:52.314Z,99095.34
2019-04-26T09:41:19.228Z,99099.95
2019-04-26T09:43:46.582Z,99096.89
2019-04-26T09:46:13.861Z,99097.62
2019-04-26T09:48:41.084Z,99091.44
2019-04-26T09:51:08.217Z,99087.80
2019-04-26T09:53:35.226Z,99089.21
2019-04-26T09:56:02.433Z,99086.06
2019-04-26T09:58:30.830Z,99093.72
2019-04-26T10:00:58.945Z,99102.19
2019-04-26T10:03:26.122Z,99100.79
2019-04-26T10:05:55.943Z,99103.97
2019-04-26T10:08:22.131Z,99102.33
2019-04-26T10:10:51.656Z,99094.80
2019-04-26T10:13:18.101Z,99085.48
2019-04-26T10:15:45.077Z,99082.06
2019-04-26T10:18:11.938Z,99083.72
2019-04-26T10:20:38.818Z,99076.52
2019-04-26T10:23:06.117Z,99077.00
2019-04-26T10:25:33.492Z,99067.45
2019-04-26T10:28:00.465Z,99075.23
2019-04-26T10:30:27.473Z,99077.48
2019-04-26T10:32:58.222Z,99077.48
2019-04-26T10:35:23.328Z,99078.66
2019-04-26T10:37:52.509Z,99079.11
2019-04-26T10:40:18.800Z,99077.12
2019-04-26T10:42:45.702Z,99077.23
2019-04-26T10:45:14.654Z,99071.22
2019-04-26T10:47:41.463Z,99074.39
2019-04-26T10:50:08.709Z,99072.97
2019-04-26T10:52:35.636Z,99074.64
2019-04-26T10:55:02.571Z,99084.19
2019-04-26T10:57:29.921Z,99083.83
2019-04-26T10:59:57.152Z,99082.41
2019-04-26T11:02:24.024Z,99081.46
2019-04-26T11:04:51.249Z,99074.63
2019-04-26T11:07:18.813Z,99068.27
2019-04-26T11:09:45.681Z,99076.89
2019-04-26T11:12:12.893Z,99074.63
2019-04-26T11:14:39.786Z,99075.94
2019-04-26T11:17:06.736Z,99077.23
2019-04-26T11:19:35.518Z,99066.97
2019-04-26T11:22:02.173Z,99074.88
2019-04-26T11:24:29.073Z,99065.42
2019-04-26T11:26:56.211Z,99068.61
2019-04-26T11:29:24.998Z,99057.66
2019-04-26T11:31:54.104Z,99059.79
2019-04-26T11:34:23.618Z,99057.20
2019-04-26T11:36:49.985Z,99056.36
2019-04-26T11:39:16.956Z,99060.72
2019-04-26T11:41:44.269Z,99056.58
2019-04-26T11:44:11.200Z,99050.34
2019-04-26T11:46:44.569Z,99043.03
2019-04-26T11:49:08.173Z,99043.74
2019-04-26T11:51:35.595Z,99038.80
2019-04-26T11:54:02.761Z,99034.91
2019-04-26T11:56:34.002Z,99029.10
2019-04-26T11:58:59.435Z,99039.48
2019-04-26T12:01:26.294Z,99035.71
2019-04-26T12:03:55.612Z,99037.84
2019-04-26T12:06:22.079Z,99038.42
2019-04-26T12:08:48.980Z,99040.67
2019-04-26T12:11:18.622Z,99036.78
2019-04-26T12:13:45.194Z,99039.97
2019-04-26T12:16:14.571Z,99039.28
2019-04-26T12:18:44.224Z,99036.78
2019-04-26T12:21:09.709Z,99040.45
2019-04-26T12:23:36.960Z,99034.92
2019-04-26T12:26:04.223Z,99035.27
2019-04-26T12:28:31.152Z,99040.45
2019-04-26T12:30:58.757Z,99041.16
2019-04-26T12:33:26.625Z,99036.22
2019-04-26T12:35:57.197Z,99033.25
2019-04-26T12:38:24.132Z,99027.27
2019-04-26T12:40:50.654Z,99042.33
2019-04-26T12:43:20.221Z,99041.99
2019-04-26T12:45:47.388Z,99063.90
2019-04-26T12:48:15.721Z,99071.45
2019-04-26T12:50:43.705Z,99077.34
2019-04-26T12:53:10.564Z,99071.47
2019-04-26T12:55:37.433Z,99066.97
2019-04-26T12:58:04.317Z,99074.17
2019-04-26T13:00:32.956Z,99075.70
2019-04-26T13:03:01.768Z,99063.78
2019-04-26T13:05:29.064Z,99056.96
2019-04-26T13:07:56.118Z,99060.97
2019-04-26T13:10:22.981Z,99068.51
2019-04-26T13:12:50.010Z,99063.20
2019-04-26T13:15:17.908Z,99069.45
2019-04-26T13:17:45.222Z,99070.41
2019-04-26T13:20:12.488Z,99077.13
2019-04-26T13:22:45.984Z,99081.13
2019-04-26T13:25:15.386Z,99084.44
2019-04-26T13:27:41.651Z,99082.06
2019-04-26T13:30:06.821Z,99072.41
2019-04-26T13:32:35.023Z,99067.34
2019-04-26T13:35:01.909Z,99072.04
2019-04-26T13:37:32.201Z,99072.16
2019-04-26T13:39:58.732Z,99077.00
2019-04-26T13:42:25.939Z,99070.76
2019-04-26T13:44:53.081Z,99070.18
2019-04-26T13:47:20.257Z,99077.72
2019-04-26T13:49:48.220Z,99076.86
2019-04-26T13:52:15.662Z,99077.23
2019-04-26T13:54:42.521Z,99073.11
2019-04-26T13:57:10.184Z,99073.69
2019-04-26T13:59:37.745Z,99069.22
2019-04-26T14:02:11.279Z,99076.05
2019-04-26T14:04:33.576Z,99071.45
2019-04-26T14:07:01.125Z,99067.91
2019-04-26T14:09:28.001Z,99069.81
2019-04-26T14:11:58.066Z,99066.39
2019-04-26T14:14:24.133Z,99061.20
2019-04-26T14:16:52.107Z,99062.16
2019-04-26T14:19:20.258Z,99067.56
2019-04-26T14:21:47.408Z,99065.55
2019-04-26T14:24:14.301Z,99070.28
2019-04-26T14:26:41.642Z,99069.94
2019-04-26T14:29:08.578Z,99073.70
2019-04-26T14:31:35.572Z,99076.42
2019-04-26T14:34:05.444Z,99063.08
2019-04-26T14:36:31.669Z,99074.17
2019-04-26T14:39:05.694Z,99064.04
2019-04-26T14:41:27.569Z,99058.02
2019-04-26T14:43:56.758Z,99065.80
2019-04-26T14:46:23.465Z,99062.50
2019-04-26T14:49:00.841Z,99055.68
2019-04-26T14:51:18.962Z,99067.34
2019-04-26T14:53:46.232Z,99068.88
2019-04-26T14:56:13.186Z,99056.73
2019-04-26T14:58:40.053Z,99063.68
2019-04-26T15:01:07.251Z,99067.11
2019-04-26T15:03:34.393Z,99068.27
2019-04-26T15:06:02.855Z,99062.95
2019-04-26T15:08:32.150Z,99060.70
2019-04-26T15:11:01.158Z,99070.14
2019-04-26T15:13:27.709Z,99062.70
2019-04-26T15:15:54.667Z,99068.77
2019-04-26T15:18:22.555Z,99068.47
2019-04-26T15:20:53.170Z,99080.27
2019-04-26T15:23:19.407Z,99073.31
2019-04-26T15:25:48.793Z,99080.02
2019-04-26T15:28:15.275Z,99079.08
2019-04-26T15:30:46.654Z,99084.95
2019-04-26T15:33:12.821Z,99089.78
2019-04-26T15:35:39.645Z,99089.33
2019-04-26T15:38:07.318Z,99084.73
2019-04-26T15:40:35.123Z,99084.15
2019-04-26T15:43:03.551Z,99091.55
2019-04-26T15:45:32.622Z,99103.78
2019-04-26T15:47:59.393Z,99088.84
2019-04-26T15:50:26.654Z,99089.19
2019-04-26T15:52:53.626Z,99085.30
2019-04-26T15:55:20.834Z,99084.49
2019-04-26T15:57:48.093Z,99088.72
2019-04-26T16:00:15.239Z,99094.86
2019-04-26T16:02:42.728Z,99102.86
2019-04-26T16:05:09.794Z,99105.57
2019-04-26T16:07:36.727Z,99101.80
2019-04-26T16:10:04.357Z,99107.56
2019-04-26T16:12:32.077Z,99110.16
2019-04-26T16:15:02.290Z,99108.26
2019-04-26T16:17:29.272Z,99109.06
2019-04-26T16:20:00.167Z,99127.31
2019-04-26T16:22:30.145Z,99127.20
2019-04-26T16:24:58.273Z,99137.87
2019-04-26T16:27:30.717Z,99150.25
2019-04-26T16:29:58.387Z,99147.72
2019-04-26T16:32:23.013Z,99152.72
2019-04-26T16:34:50.153Z,99141.58
2019-04-26T16:37:21.627Z,99123.83
2019-04-26T16:39:48.633Z,99118.66
2019-04-26T16:42:15.154Z,99114.31
2019-04-26T16:44:44.951Z,99109.58
2019-04-26T16:47:13.095Z,99120.52
2019-04-26T16:49:41.877Z,99117.92
2019-04-26T16:52:08.156Z,99123.31
2019-04-26T16:54:36.628Z,99125.27
2019-04-26T16:57:06.832Z,99130.50
2019-04-26T16:59:32.834Z,99139.02
2019-04-26T17:02:02.440Z,99155.11
2019-04-26T17:04:32.423Z,99163.46
2019-04-26T17:07:01.771Z,99168.33
2019-04-26T17:09:29.617Z,99164.66
2019-04-26T17:11:55.157Z,99167.82
2019-04-26T17:14:24.392Z,99169.58
2019-04-26T17:16:53.043Z,99175.32
2019-04-26T17:19:20.016Z,99177.13
2019-04-26T17:21:47.364Z,99178.19
2019-04-26T17:24:14.620Z,99177.84
2019-04-26T17:26:42.784Z,99180.23
2019-04-26T17:29:10.155Z,99197.95
2019-04-26T17:31:37.406Z,99218.59
2019-04-26T17:34:05.233Z,99234.27
2019-04-26T17:36:34.409Z,99240.82
2019-04-26T17:39:00.945Z,99261.82
2019-04-26T17:41:31.049Z,99271.43
2019-04-26T17:44:08.030Z,99261.00
2019-04-26T17:46:26.949Z,99256.03
2019-04-26T17:48:53.913Z,99264.58
2019-04-26T17:51:23.084Z,99268.92
2019-04-26T17:53:58.778Z,99284.41
2019-04-26T17:56:18.040Z,99293.38
2019-04-26T17:58:52.385Z,99290.11
2019-04-26T18:01:33.315Z,99294.32
2019-04-26T18:03:50.880Z,99290.45
2019-04-26T18:06:14.145Z,99292.20
2019-04-26T18:08:46.049Z,99296.91
2019-04-26T18:11:07.884Z,99292.11
2019-04-26T18:13:34.865Z,99287.98
2019-04-26T18:16:03.617Z,99249.17
2019-04-26T18:18:30.706Z,99301.94
2019-04-26T18:20:57.913Z,99302.69
2019-04-26T18:23:24.788Z,99306.72
2019-04-26T18:25:52.681Z,99305.13
2019-04-26T18:28:19.830Z,99298.52
2019-04-26T18:30:47.733Z,99289.77
2019-04-26T18:33:17.558Z,99281.05
2019-04-26T18:35:45.235Z,99295.41
2019-04-26T18:38:12.701Z,99307.94
2019-04-26T18:40:58.894Z,99324.53
2019-04-26T18:43:12.515Z,99325.66
2019-04-26T18:45:37.668Z,99356.98
2019-04-26T18:48:04.985Z,99375.22
2019-04-26T18:50:32.863Z,99369.70
2019-04-26T18:53:00.889Z,99364.91
2019-04-26T18:55:29.902Z,99363.63
2019-04-26T18:58:01.510Z,99367.50
2019-04-26T19:00:28.921Z,99377.63
2019-04-26T19:02:55.444Z,99382.22
2019-04-26T19:05:27.036Z,99384.07
2019-04-26T19:07:51.617Z,99390.52
2019-04-26T19:10:18.954Z,99397.33
2019-04-26T19:12:46.289Z,99397.60
2019-04-26T19:15:13.259Z,99406.09
2019-04-26T19:17:40.338Z,99419.04
2019-04-26T19:20:07.876Z,99440.88
2019-04-26T19:22:35.070Z,99460.30
2019-04-26T19:25:02.131Z,99474.09
2019-04-26T19:27:29.418Z,99473.51
2019-04-26T19:29:56.657Z,99469.33
2019-04-26T19:32:23.649Z,99479.55
2019-04-26T19:34:52.363Z,99476.25
2019-04-26T19:37:19.626Z,99485.63
2019-04-26T19:39:46.785Z,99481.72
2019-04-26T19:42:13.818Z,99482.59
2019-04-26T19:44:42.089Z,99489.34
2019-04-26T19:47:09.488Z,99495.45
2019-04-26T19:49:36.792Z,99496.46
2019-04-26T19:52:04.199Z,99497.36
2019-04-26T19:54:36.835Z,99512.99
2019-04-26T19:57:01.086Z,99513.47
2019-04-26T19:59:31.475Z,99538.14
2019-04-26T20:01:58.345Z,99553.25
2019-04-26T20:04:30.559Z,99564.81
2019-04-26T20:06:55.320Z,99566.47
2019-04-26T20:09:26.208Z,99583.14
2019-04-26T20:11:57.852Z,99572.95
2019-04-26T20:14:35.442Z,99561.69
2019-04-26T20:16:52.075Z,99553.40
2019-04-26T20:19:32.435Z,99567.41
2019-04-26T20:21:49.686Z,99566.52
2019-04-26T20:24:19.368Z,99574.16
2019-04-26T20:26:48.620Z,99570.61
2019-04-26T20:29:15.832Z,99578.03
2019-04-26T20:31:47.614Z,99583.09
2019-04-26T20:34:15.281Z,99587.33
2019-04-26T20:36:45.341Z,99578.20
2019-04-26T20:39:08.713Z,99565.48
2019-04-26T20:41:37.615Z,99575.84
2019-04-26T20:44:09.607Z,99588.39
2019-04-26T20:46:36.021Z,99593.88
2019-04-26T20:49:07.925Z,99582.91
2019-04-26T20:51:32.221Z,99586.58
2019-04-26T20:53:59.629Z,99589.95
2019-04-26T20:56:26.791Z,99604.11
2019-04-26T20:58:53.717Z,99600.33
2019-04-26T21:01:22.229Z,99596.11
2019-04-26T21:03:51.238Z,99598.47
2019-04-26T21:06:18.639Z,99592.32
2019-04-26T21:08:45.660Z,99595.19
2019-04-26T21:11:13.667Z,99587.09
2019-04-26T21:13:41.554Z,99584.73
2019-04-26T21:16:15.176Z,99582.17
2019-04-26T21:18:43.871Z,99586.37
2019-04-26T21:21:10.570Z,99592.78
2019-04-26T21:23:40.010Z,99596.30
2019-04-26T21:26:07.196Z,99607.58
2019-04-26T21:28:38.040Z,99607.14
2019-04-26T21:31:03.507Z,99617.22
2019-04-26T21:33:35.873Z,99630.77
2019-04-26T21:36:02.052Z,99639.23
2019-04-26T21:38:29.686Z,99635.27
2019-04-26T21:41:04.443Z,99640.84
2019-04-26T21:43:29.448Z,99639.97
2019-04-26T21:46:07.261Z,99631.85
2019-04-26T21:48:24.843Z,99624.16
2019-04-26T21:50:53.657Z,99622.19
2019-04-26T21:53:20.368Z,99613.34
2019-04-26T21:55:47.670Z,99617.56
2019-04-26T21:58:14.810Z,99609.35
2019-04-26T22:00:43.552Z,99614.62
2019-04-26T22:03:15.783Z,99609.22
2019-04-26T22:05:43.958Z,99609.35
2019-04-26T22:08:09.348Z,99598.44
2019-04-26T22:10:39.524Z,99609.21
2019-04-26T22:13:05.653Z,99611.98
2019-04-26T22:15:37.308Z,99620.64
2019-04-26T22:18:03.222Z,99616.02
2019-04-26T22:20:30.333Z,99619.02
2019-04-26T22:22:57.261Z,99611.86
2019-04-26T22:25:25.545Z,99611.09
2019-04-26T22:27:54.032Z,99610.48
2019-04-26T22:30:22.730Z,99608.56
2019-04-26T22:32:54.623Z,99606.27
2019-04-26T22:35:21.483Z,99604.46
2019-04-26T22:37:48.366Z,99612.80
2019-04-26T22:40:19.543Z,99605.77
2019-04-26T22:42:44.144Z,99605.50
2019-04-26T22:45:13.432Z,99599.86
2019-04-26T22:47:42.639Z,99584.81
2019-04-26T22:50:13.985Z,99582.82
2019-04-26T22:52:39.254Z,99582.89
2019-04-26T22:55:06.505Z,99590.44
2019-04-26T22:57:33.769Z,99601.52
2019-04-26T23:00:00.659Z,99615.44
2019-04-26T23:19:59.228Z,99603.29
2019-04-26T23:22:31.047Z,99605.17
2019-04-26T23:24:58.036Z,99611.54
2019-04-26T23:27:23.717Z,99616.70
2019-04-26T23:29:56.825Z,99618.59
2019-04-26T23:32:20.145Z,99623.66
2019-04-26T23:34:47.221Z,99621.28
2019-04-26T23:37:14.493Z,99617.43
2019-04-26T23:39:42.945Z,99616.59
2019-04-26T23:42:12.338Z,99609.11
2019-04-26T23:44:40.201Z,99613.56
2019-04-26T23:47:18.503Z,99616.19
2019-04-26T23:49:36.605Z,99614.31
2019-04-26T23:52:03.769Z,99609.65
2019-04-26T23:54:32.325Z,99610.94
2019-04-26T23:56:59.375Z,99618.06
2019-04-26T23:59:26.336Z,99615.53
